createdAt,value
2019-05-21T00:01:05.969Z,7.25
2019-05-21T00:03:36.635Z,5.97
2019-05-21T00:06:06.723Z,6.60
2019-05-21T00:08:36.805Z,7.17
2019-05-21T00:11:07.004Z,5.60
2019-05-21T00:13:37.739Z,5.95
2019-05-21T00:16:08.470Z,5.53
2019-05-21T00:18:38.594Z,6.70
2019-05-21T00:21:08.631Z,4.95
2019-05-21T00:23:39.058Z,6.50
2019-05-21T00:26:09.796Z,6.10
2019-05-21T00:28:40.990Z,6.60
2019-05-21T00:31:46.689Z,6.35
2019-05-21T00:34:52.827Z,6.60
2019-05-21T00:37:58.097Z,6.97
2019-05-21T00:41:03.236Z,6.50
2019-05-21T00:43:51.263Z,7.40
2019-05-21T00:46:21.023Z,6.53
2019-05-21T00:48:51.590Z,7.28
2019-05-21T00:51:21.433Z,7.22
2019-05-21T00:53:51.274Z,6.08
2019-05-21T00:56:20.929Z,6.12
2019-05-21T00:58:51.035Z,6.53
2019-05-21T01:01:21.101Z,5.17
2019-05-21T01:03:51.182Z,6.93
2019-05-21T01:06:21.136Z,6.97
2019-05-21T01:08:51.270Z,6.90
2019-05-21T01:11:21.250Z,6.87
2019-05-21T01:13:51.198Z,7.20
2019-05-21T01:16:21.275Z,5.87
2019-05-21T01:18:51.754Z,7.47
2019-05-21T01:21:21.625Z,7.28
2019-05-21T01:23:51.673Z,6.92
2019-05-21T01:26:21.637Z,7.55
2019-05-21T01:28:51.497Z,6.87
2019-05-21T01:31:21.592Z,6.60
2019-05-21T01:33:51.283Z,6.62
2019-05-21T01:36:21.002Z,6.70
2019-05-21T01:38:50.898Z,6.30
2019-05-21T01:41:20.733Z,6.53
2019-05-21T01:43:50.671Z,6.20
2019-05-21T01:46:20.325Z,5.97
2019-05-21T01:48:50.489Z,6.47
2019-05-21T01:51:20.559Z,6.70
2019-05-21T01:53:50.535Z,6.15
2019-05-21T01:56:20.513Z,6.60
2019-05-21T01:58:50.478Z,6.17
2019-05-21T02:01:20.653Z,7.25
2019-05-21T02:03:50.673Z,6.42
2019-05-21T02:06:21.274Z,6.17
2019-05-21T02:08:51.548Z,5.23
2019-05-21T02:11:21.256Z,7.05
2019-05-21T02:13:51.398Z,6.70
2019-05-21T02:16:21.063Z,6.75
2019-05-21T02:18:50.922Z,5.70
2019-05-21T02:21:20.966Z,6.90
2019-05-21T02:23:51.289Z,7.70
2019-05-21T02:26:20.955Z,5.53
2019-05-21T02:28:51.295Z,6.42
2019-05-21T02:31:21.175Z,7.65
2019-05-21T02:33:51.118Z,6.87
2019-05-21T02:36:21.303Z,7.65
2019-05-21T02:38:51.355Z,5.37
2019-05-21T02:41:21.455Z,7.67
2019-05-21T02:43:51.395Z,8.88
2019-05-21T02:46:21.458Z,7.70
2019-05-21T02:48:51.523Z,6.53
2019-05-21T02:51:21.684Z,7.83
2019-05-21T02:53:51.554Z,8.20
2019-05-21T02:56:21.553Z,6.57
2019-05-21T02:58:51.671Z,7.62
2019-05-21T03:01:37.247Z,7.92
2019-05-21T03:04:06.990Z,10.03
2019-05-21T03:06:36.752Z,8.10
2019-05-21T03:09:07.425Z,8.00
2019-05-21T03:11:37.174Z,7.95
2019-05-21T03:14:07.632Z,6.70
2019-05-21T03:16:37.262Z,7.17
2019-05-21T03:19:07.315Z,8.83
2019-05-21T03:21:36.985Z,8.75
2019-05-21T03:24:07.152Z,8.50
2019-05-21T03:26:37.299Z,7.97
2019-05-21T03:29:07.220Z,7.70
2019-05-21T03:31:37.275Z,9.20
2019-05-21T03:34:07.468Z,7.75
2019-05-21T03:36:37.615Z,7.22
2019-05-21T03:39:07.591Z,8.23
2019-05-21T03:41:37.642Z,8.63
2019-05-21T03:44:07.515Z,8.38
2019-05-21T03:46:37.368Z,9.33
2019-05-21T03:49:07.223Z,10.63
2019-05-21T03:51:37.599Z,10.93
2019-05-21T03:54:07.252Z,6.40
2019-05-21T03:56:37.235Z,10.47
2019-05-21T03:59:06.886Z,8.18
2019-05-21T04:01:36.850Z,8.17
2019-05-21T04:04:06.510Z,9.80
2019-05-21T04:06:50.521Z,8.53
2019-05-21T04:09:08.515Z,10.53
2019-05-21T04:11:38.603Z,10.78
2019-05-21T04:14:08.391Z,11.18
2019-05-21T04:16:59.935Z,11.48
2019-05-21T04:19:33.540Z,11.47
2019-05-21T04:22:03.620Z,9.05
2019-05-21T04:24:33.573Z,8.27
2019-05-21T04:27:03.644Z,8.93
2019-05-21T04:29:34.048Z,10.38
2019-05-21T04:32:07.530Z,10.48
2019-05-21T04:34:37.382Z,9.15
2019-05-21T04:37:11.406Z,12.15
2019-05-21T04:39:39.619Z,9.73
2019-05-21T04:42:09.578Z,9.15
2019-05-21T04:44:39.867Z,7.20
2019-05-21T04:47:09.713Z,8.93
2019-05-21T04:49:39.694Z,10.15
2019-05-21T04:52:10.083Z,9.30
2019-05-21T04:54:40.140Z,11.93
2019-05-21T04:57:10.036Z,10.95
2019-05-21T04:59:40.271Z,10.15
2019-05-21T05:02:09.966Z,10.53
2019-05-21T05:04:39.790Z,9.03
2019-05-21T05:07:25.121Z,11.13
2019-05-21T05:09:41.366Z,9.50
2019-05-21T05:12:11.426Z,9.28
2019-05-21T05:14:41.511Z,10.15
2019-05-21T05:17:11.619Z,8.93
2019-05-21T05:19:41.964Z,9.83
2019-05-21T05:22:13.896Z,10.63
2019-05-21T05:24:44.167Z,8.73
2019-05-21T05:27:13.963Z,9.33
2019-05-21T05:29:44.466Z,9.18
2019-05-21T05:32:14.420Z,10.55
2019-05-21T05:34:44.349Z,10.35
2019-05-21T05:37:14.247Z,9.60
2019-05-21T05:39:44.111Z,8.73
2019-05-21T05:42:13.967Z,9.05
2019-05-21T05:44:44.358Z,10.60
2019-05-21T05:47:14.206Z,11.18
2019-05-21T05:49:47.523Z,13.25
2019-05-21T05:52:17.515Z,12.30
2019-05-21T05:54:47.609Z,9.43
2019-05-21T05:57:17.759Z,10.08
2019-05-21T05:59:47.938Z,10.05
2019-05-21T06:02:18.000Z,12.37
2019-05-21T06:04:48.258Z,10.10
2019-05-21T06:07:18.130Z,10.88
2019-05-21T06:09:48.109Z,9.30
2019-05-21T06:12:18.125Z,9.00
2019-05-21T06:14:48.154Z,7.97
2019-05-21T06:17:17.870Z,10.68
2019-05-21T06:19:47.938Z,9.87
2019-05-21T06:22:17.827Z,9.33
2019-05-21T06:24:47.993Z,9.10
2019-05-21T06:27:17.951Z,9.78
2019-05-21T06:29:48.042Z,9.95
2019-05-21T06:32:17.887Z,8.13
2019-05-21T06:34:48.750Z,9.45
2019-05-21T06:37:18.927Z,8.38
2019-05-21T06:39:49.406Z,8.38
2019-05-21T06:42:19.506Z,7.08
2019-05-21T06:44:49.627Z,8.93
2019-05-21T06:47:19.525Z,7.67
2019-05-21T06:49:49.678Z,9.17
2019-05-21T06:52:19.742Z,8.00
2019-05-21T06:54:49.428Z,9.38
2019-05-21T06:57:19.504Z,8.28
2019-05-21T06:59:49.157Z,9.33
2019-05-21T07:02:19.207Z,6.92
2019-05-21T07:04:48.874Z,10.08
2019-05-21T07:07:18.837Z,8.98
2019-05-21T07:09:48.814Z,8.50
2019-05-21T07:12:18.558Z,7.10
2019-05-21T07:14:48.634Z,8.28
2019-05-21T07:17:18.599Z,8.73
2019-05-21T07:19:48.670Z,8.80
2019-05-21T07:22:18.623Z,9.55
2019-05-21T07:24:49.533Z,8.95
2019-05-21T07:27:21.786Z,8.55
2019-05-21T07:29:51.822Z,8.60
2019-05-21T07:32:21.976Z,8.60
2019-05-21T07:34:52.071Z,10.23
2019-05-21T07:37:21.734Z,8.28
2019-05-21T07:39:51.911Z,8.23
2019-05-21T07:42:21.596Z,8.23
2019-05-21T07:44:51.639Z,8.78
2019-05-21T07:47:21.307Z,9.03
2019-05-21T07:49:51.003Z,9.03
2019-05-21T07:52:20.666Z,9.85
2019-05-21T07:54:50.822Z,8.70
2019-05-21T07:57:20.659Z,8.83
2019-05-21T07:59:50.361Z,10.53
2019-05-21T08:02:20.018Z,10.63
2019-05-21T08:04:49.723Z,7.87
2019-05-21T08:07:19.586Z,9.68
2019-05-21T08:09:49.318Z,9.10
2019-05-21T08:12:37.267Z,10.60
2019-05-21T08:14:50.346Z,10.25
2019-05-21T08:17:20.858Z,11.18
2019-05-21T08:19:50.851Z,12.13
2019-05-21T08:22:20.522Z,10.15
2019-05-21T08:24:50.281Z,8.83
2019-05-21T08:27:20.440Z,8.73
2019-05-21T08:29:50.130Z,8.50
2019-05-21T08:32:19.819Z,8.88
2019-05-21T08:34:49.526Z,11.30
2019-05-21T08:37:19.186Z,7.97
2019-05-21T08:39:48.931Z,10.68
2019-05-21T08:42:18.619Z,11.10
2019-05-21T08:44:48.307Z,11.70
2019-05-21T08:47:18.515Z,9.65
2019-05-21T08:49:48.251Z,9.80
2019-05-21T08:52:17.907Z,11.07
2019-05-21T08:54:47.634Z,9.35
2019-05-21T08:57:17.407Z,8.35
2019-05-21T08:59:47.238Z,10.08
2019-05-21T09:02:17.029Z,8.18
2019-05-21T09:04:47.046Z,8.63
2019-05-21T09:07:16.903Z,8.63
2019-05-21T09:09:50.437Z,8.93
2019-05-21T09:12:17.938Z,8.33
2019-05-21T09:14:47.814Z,7.37
2019-05-21T09:17:17.873Z,8.38
2019-05-21T09:19:47.774Z,9.20
2019-05-21T09:22:17.435Z,9.18
2019-05-21T09:24:47.345Z,8.13
2019-05-21T09:27:17.015Z,8.23
2019-05-21T09:29:47.107Z,8.38
2019-05-21T09:32:17.354Z,7.83
2019-05-21T09:34:49.100Z,8.07
2019-05-21T09:37:20.102Z,9.25
2019-05-21T09:39:49.763Z,8.63
2019-05-21T09:42:19.430Z,8.93
2019-05-21T09:44:49.144Z,9.20
2019-05-21T09:47:19.056Z,7.58
2019-05-21T09:49:48.764Z,7.92
2019-05-21T09:52:18.420Z,7.80
2019-05-21T09:54:48.102Z,8.80
2019-05-21T09:57:22.518Z,7.75
2019-05-21T10:00:04.044Z,7.47
2019-05-21T10:02:33.939Z,7.75
2019-05-21T10:05:03.679Z,7.20
2019-05-21T10:07:39.799Z,7.10
2019-05-21T10:10:06.201Z,8.58
2019-05-21T10:12:35.847Z,8.55
2019-05-21T10:15:05.840Z,8.18
2019-05-21T10:17:35.679Z,7.45
2019-05-21T10:20:06.012Z,9.88
2019-05-21T10:22:35.958Z,9.00
2019-05-21T10:25:06.539Z,8.90
2019-05-21T10:27:36.399Z,7.97
2019-05-21T10:30:07.217Z,8.53
2019-05-21T10:32:37.145Z,9.20
2019-05-21T10:35:07.125Z,9.03
2019-05-21T10:37:37.282Z,8.00
2019-05-21T10:40:08.565Z,9.73
2019-05-21T10:42:38.464Z,8.98
2019-05-21T10:45:08.972Z,9.53
2019-05-21T10:47:39.097Z,9.80
2019-05-21T10:50:09.448Z,7.40
2019-05-21T10:52:39.447Z,8.70
2019-05-21T10:55:15.848Z,9.25
2019-05-21T10:57:44.639Z,8.43
2019-05-21T11:00:23.150Z,10.33
2019-05-21T11:03:15.286Z,8.03
2019-05-21T11:05:47.994Z,8.28
2019-05-21T11:08:24.129Z,8.15
2019-05-21T11:10:50.978Z,8.45
2019-05-21T11:13:20.685Z,8.87
2019-05-21T11:15:50.996Z,7.70
2019-05-21T11:18:21.149Z,8.40
2019-05-21T11:20:51.554Z,7.72
2019-05-21T11:23:21.713Z,9.23
2019-05-21T11:25:51.666Z,8.88
2019-05-21T11:28:21.645Z,8.05
2019-05-21T11:30:51.791Z,7.75
2019-05-21T11:33:22.107Z,10.05
2019-05-21T11:35:52.051Z,10.18
2019-05-21T11:38:21.931Z,7.60
2019-05-21T11:40:51.988Z,8.43
2019-05-21T11:43:21.967Z,8.03
2019-05-21T11:45:52.012Z,9.15
2019-05-21T11:48:22.109Z,8.63
2019-05-21T11:50:51.857Z,8.48
2019-05-21T11:53:21.919Z,7.97
2019-05-21T11:55:51.909Z,7.62
2019-05-21T11:58:21.904Z,7.67
2019-05-21T12:00:52.499Z,7.33
2019-05-21T12:03:22.287Z,8.98
2019-05-21T12:05:52.248Z,7.20
2019-05-21T12:08:22.123Z,8.97
2019-05-21T12:10:51.862Z,6.83
2019-05-21T12:13:21.847Z,7.40
2019-05-21T12:15:51.904Z,8.03
2019-05-21T12:18:21.984Z,7.25
2019-05-21T12:20:51.954Z,8.45
2019-05-21T12:23:21.812Z,8.58
2019-05-21T12:25:52.052Z,7.33
2019-05-21T12:28:21.887Z,7.03
2019-05-21T12:30:51.755Z,8.93
2019-05-21T12:33:21.447Z,8.13
2019-05-21T12:35:51.310Z,9.43
2019-05-21T12:38:21.136Z,7.67
2019-05-21T12:40:50.998Z,6.90
2019-05-21T12:43:20.744Z,9.10
2019-05-21T12:45:50.874Z,8.27
2019-05-21T12:48:21.138Z,8.58
2019-05-21T12:50:51.206Z,7.80
2019-05-21T12:53:20.903Z,7.37
2019-05-21T12:55:50.970Z,6.58
2019-05-21T12:58:20.666Z,5.63
2019-05-21T13:00:50.611Z,8.20
2019-05-21T13:03:20.294Z,7.23
2019-05-21T13:05:50.329Z,8.20
2019-05-21T13:08:21.101Z,7.77
2019-05-21T13:10:52.416Z,8.30
2019-05-21T13:13:22.690Z,8.28
2019-05-21T13:15:53.899Z,8.58
2019-05-21T13:18:24.536Z,7.85
2019-05-21T13:20:55.344Z,8.50
2019-05-21T13:23:26.706Z,8.70
2019-05-21T13:25:56.735Z,6.03
2019-05-21T13:28:26.831Z,7.75
2019-05-21T13:30:56.571Z,7.53
2019-05-21T13:33:26.615Z,6.50
2019-05-21T13:35:56.668Z,6.10
2019-05-21T13:38:28.611Z,9.33
2019-05-21T13:40:58.762Z,7.43
2019-05-21T13:43:29.040Z,8.55
2019-05-21T13:45:59.256Z,7.67
2019-05-21T13:48:29.688Z,7.90
2019-05-21T13:50:59.654Z,7.58
2019-05-21T13:53:29.675Z,7.97
2019-05-21T13:55:59.898Z,6.87
2019-05-21T13:58:29.789Z,8.38
2019-05-21T14:01:00.379Z,7.85
2019-05-21T14:03:30.360Z,8.23
2019-05-21T14:06:00.270Z,7.45
2019-05-21T14:08:30.017Z,8.65
2019-05-21T14:11:00.138Z,6.67
2019-05-21T14:13:29.985Z,8.13
2019-05-21T14:16:00.148Z,8.28
2019-05-21T14:18:30.047Z,8.48
2019-05-21T14:20:59.977Z,5.97
2019-05-21T14:23:30.118Z,7.65
2019-05-21T14:26:00.296Z,6.90
2019-05-21T14:28:30.259Z,7.12
2019-05-21T14:31:00.252Z,6.65
2019-05-21T14:33:30.318Z,6.60
2019-05-21T14:36:00.266Z,6.03
2019-05-21T14:38:30.124Z,7.22
2019-05-21T14:41:00.010Z,6.37
2019-05-21T14:43:30.561Z,6.85
2019-05-21T14:46:00.542Z,5.22
2019-05-21T14:48:30.522Z,4.95
2019-05-21T14:51:00.279Z,6.35
2019-05-21T14:53:30.423Z,7.78
2019-05-21T14:56:00.099Z,7.72
2019-05-21T14:58:30.349Z,6.35
2019-05-21T15:01:00.429Z,5.90
2019-05-21T15:03:30.386Z,6.60
2019-05-21T15:06:00.293Z,6.30
2019-05-21T15:08:30.232Z,6.85
2019-05-21T15:11:00.311Z,7.45
2019-05-21T15:13:30.144Z,6.92
2019-05-21T15:15:59.922Z,7.33
2019-05-21T15:18:30.378Z,6.60
2019-05-21T15:21:11.014Z,6.43
2019-05-21T15:23:42.382Z,7.45
2019-05-21T15:26:13.002Z,7.55
2019-05-21T15:28:43.259Z,6.73
2019-05-21T15:31:13.360Z,6.67
2019-05-21T15:33:43.496Z,5.50
2019-05-21T15:36:13.572Z,7.62
2019-05-21T15:38:50.349Z,6.07
2019-05-21T15:41:15.338Z,7.80
2019-05-21T15:43:45.298Z,6.00
2019-05-21T15:46:15.131Z,5.95
2019-05-21T15:48:45.223Z,6.20
2019-05-21T15:51:15.283Z,6.10
2019-05-21T15:53:45.423Z,4.97
2019-05-21T15:56:15.337Z,5.58
2019-05-21T15:58:45.501Z,7.13
2019-05-21T16:01:16.218Z,6.78
2019-05-21T16:03:46.388Z,6.75
2019-05-21T16:06:16.428Z,7.45
2019-05-21T16:08:46.564Z,4.80
2019-05-21T16:11:28.040Z,6.12
2019-05-21T16:13:48.669Z,5.97
2019-05-21T16:16:18.954Z,5.75
2019-05-21T16:18:48.657Z,6.10
2019-05-21T16:21:18.523Z,6.87
2019-05-21T16:23:48.218Z,6.87
2019-05-21T16:26:17.886Z,7.22
2019-05-21T16:28:47.582Z,8.70
2019-05-21T16:31:17.262Z,7.72
2019-05-21T16:33:46.951Z,8.00
2019-05-21T16:36:16.617Z,8.10
2019-05-21T16:38:46.325Z,6.92
2019-05-21T16:41:16.054Z,6.55
2019-05-21T16:43:45.753Z,6.17
2019-05-21T16:46:15.501Z,7.17
2019-05-21T16:48:45.198Z,6.47
2019-05-21T16:51:14.885Z,9.28
2019-05-21T16:53:44.678Z,6.22
2019-05-21T16:56:14.615Z,6.25
2019-05-21T16:58:44.323Z,7.53
2019-05-21T17:01:15.741Z,6.25
2019-05-21T17:03:59.113Z,5.47
2019-05-21T17:06:17.432Z,7.75
2019-05-21T17:08:47.123Z,8.20
2019-05-21T17:11:16.780Z,8.98
2019-05-21T17:13:46.478Z,6.22
2019-05-21T17:16:16.326Z,4.97
2019-05-21T17:18:46.033Z,5.15
2019-05-21T17:21:15.714Z,7.00
2019-05-21T17:23:46.296Z,8.50
2019-05-21T17:26:15.947Z,8.07
2019-05-21T17:28:45.830Z,7.45
2019-05-21T17:31:15.486Z,5.80
2019-05-21T17:33:45.365Z,5.83
2019-05-21T17:36:15.223Z,7.90
2019-05-21T17:38:44.922Z,6.15
2019-05-21T17:41:15.124Z,7.22
2019-05-21T17:43:44.944Z,8.50
2019-05-21T17:46:14.870Z,6.95
2019-05-21T17:48:44.559Z,8.17
2019-05-21T17:51:14.271Z,8.53
2019-05-21T17:53:43.924Z,8.58
2019-05-21T17:56:14.018Z,8.58
2019-05-21T17:58:43.999Z,8.43
2019-05-21T18:01:16.042Z,7.92
2019-05-21T18:03:45.700Z,8.00
2019-05-21T18:06:16.293Z,6.95
2019-05-21T18:08:47.105Z,9.48
2019-05-21T18:11:18.318Z,7.75
2019-05-21T18:13:48.477Z,8.05
2019-05-21T18:16:18.305Z,7.25
2019-05-21T18:18:48.182Z,6.85
2019-05-21T18:21:18.689Z,7.62
2019-05-21T18:23:48.561Z,6.55
2019-05-21T18:26:18.346Z,6.87
2019-05-21T18:28:48.300Z,8.73
2019-05-21T18:31:18.302Z,6.53
2019-05-21T18:33:48.210Z,7.15
2019-05-21T18:36:18.291Z,7.25
2019-05-21T18:38:47.970Z,5.65
2019-05-21T18:41:17.727Z,8.63
2019-05-21T18:43:50.221Z,9.40
2019-05-21T18:46:19.727Z,9.03
2019-05-21T18:48:49.438Z,8.35
2019-05-21T18:51:19.142Z,8.85
2019-05-21T18:53:48.795Z,7.92
2019-05-21T18:56:18.504Z,8.80
2019-05-21T18:58:48.269Z,6.87
2019-05-21T19:01:18.435Z,7.77
2019-05-21T19:03:48.775Z,7.92
2019-05-21T19:06:19.221Z,8.55
2019-05-21T19:08:49.762Z,8.28
2019-05-21T19:11:20.163Z,9.40
2019-05-21T19:13:50.014Z,7.85
2019-05-21T19:16:19.981Z,7.65
2019-05-21T19:18:49.662Z,7.30
2019-05-21T19:21:19.616Z,8.10
2019-05-21T19:23:49.478Z,7.80
2019-05-21T19:26:19.954Z,7.57
2019-05-21T19:28:50.041Z,7.15
2019-05-21T19:31:19.770Z,6.15
2019-05-21T19:33:49.451Z,6.33
2019-05-21T19:36:19.173Z,5.60
2019-05-21T19:38:50.093Z,6.92
2019-05-21T19:41:23.185Z,5.72
2019-05-21T19:43:53.999Z,7.78
2019-05-21T19:46:26.593Z,8.08
2019-05-21T19:48:57.026Z,7.25
2019-05-21T19:51:27.219Z,5.63
2019-05-21T19:53:57.287Z,7.45
2019-05-21T19:56:27.392Z,7.40
2019-05-21T19:58:57.572Z,6.97
2019-05-21T20:01:27.859Z,7.35
2019-05-21T20:03:57.855Z,8.08
2019-05-21T20:06:27.843Z,5.53
2019-05-21T20:08:57.630Z,6.65
2019-05-21T20:11:28.127Z,6.97
2019-05-21T20:13:58.108Z,5.92
2019-05-21T20:16:28.098Z,6.30
2019-05-21T20:18:58.055Z,6.83
2019-05-21T20:21:27.990Z,7.35
2019-05-21T20:23:58.171Z,5.78
2019-05-21T20:26:29.837Z,7.75
2019-05-21T20:29:00.260Z,6.37
2019-05-21T20:31:30.307Z,7.30
2019-05-21T20:34:01.094Z,6.55
2019-05-21T20:36:31.291Z,7.33
2019-05-21T20:39:02.246Z,5.58
2019-05-21T20:41:32.447Z,7.90
2019-05-21T20:44:03.294Z,7.85
2019-05-21T20:46:33.886Z,6.53
2019-05-21T20:49:03.960Z,8.10
2019-05-21T20:51:34.627Z,6.20
2019-05-21T20:54:08.245Z,5.87
2019-05-21T20:56:38.153Z,4.83
2019-05-21T20:59:08.122Z,8.23
2019-05-21T21:01:39.413Z,6.90
2019-05-21T21:04:09.999Z,5.30
2019-05-21T21:06:40.675Z,6.15
2019-05-21T21:09:12.267Z,6.50
2019-05-21T21:11:42.587Z,6.77
2019-05-21T21:14:18.266Z,8.75
2019-05-21T21:16:52.619Z,7.37
2019-05-21T21:19:22.968Z,6.20
2019-05-21T21:21:52.866Z,6.67
2019-05-21T21:24:22.534Z,8.38
2019-05-21T21:26:52.578Z,6.70
2019-05-21T21:29:22.806Z,6.35
2019-05-21T21:31:53.043Z,7.42
2019-05-21T21:34:23.365Z,7.45
2019-05-21T21:36:53.579Z,7.80
2019-05-21T21:39:23.469Z,7.73
2019-05-21T21:41:53.768Z,7.28
2019-05-21T21:44:33.615Z,8.43
2019-05-21T21:46:56.438Z,6.87
2019-05-21T21:49:28.050Z,6.60
2019-05-21T21:51:57.956Z,6.87
2019-05-21T21:54:27.963Z,6.28
2019-05-21T21:56:57.660Z,7.65
2019-05-21T21:59:27.950Z,6.33
2019-05-21T22:02:03.698Z,8.27
2019-05-21T22:04:37.103Z,9.63
2019-05-21T22:07:07.249Z,9.88
2019-05-21T22:09:38.760Z,8.38
2019-05-21T22:12:18.656Z,8.83
2019-05-21T22:14:55.927Z,9.93
2019-05-21T22:17:25.635Z,9.17
2019-05-21T22:19:55.635Z,7.60
2019-05-21T22:22:26.004Z,9.93
2019-05-21T22:24:56.102Z,12.03
2019-05-21T22:27:26.194Z,10.13
2019-05-21T22:29:56.267Z,9.68
2019-05-21T22:32:26.902Z,6.40
2019-05-21T22:34:57.027Z,8.60
2019-05-21T22:37:27.910Z,9.33
2019-05-21T22:39:58.490Z,9.33
2019-05-21T22:42:29.592Z,9.98
2019-05-21T22:45:08.159Z,9.83
2019-05-21T22:47:31.343Z,9.65
2019-05-21T22:50:01.046Z,9.10
2019-05-21T22:52:31.001Z,9.73
2019-05-21T22:55:00.715Z,9.00
2019-05-21T22:57:31.142Z,8.98
2019-05-21T23:00:01.304Z,7.83
2019-05-21T23:02:33.638Z,10.13
2019-05-21T23:05:04.609Z,9.20
2019-05-21T23:07:34.779Z,6.87
2019-05-21T23:10:05.602Z,9.30
2019-05-21T23:12:36.074Z,9.30
2019-05-21T23:15:06.517Z,10.40
2019-05-21T23:17:36.842Z,7.23
2019-05-21T23:20:07.865Z,9.40
2019-05-21T23:22:37.959Z,10.58
2019-05-21T23:25:08.944Z,9.47
2019-05-21T23:27:38.895Z,8.53
2019-05-21T23:30:11.587Z,8.18
2019-05-21T23:32:42.138Z,9.48
2019-05-21T23:35:13.909Z,10.33
2019-05-21T23:37:47.147Z,9.15
2019-05-21T23:40:17.392Z,8.75
2019-05-21T23:42:47.730Z,10.70
2019-05-21T23:45:18.273Z,8.80
2019-05-21T23:47:48.554Z,10.57
2019-05-21T23:50:20.731Z,8.03
2019-05-21T23:52:51.239Z,7.72
2019-05-21T23:55:21.220Z,6.17
2019-05-21T23:57:52.078Z,8.08
